Аэропорт: Псков. Псков

ICAO: ULOO

METAR:
2021-04-21 21:30:00
ULOO 212130Z 17002MPS CAVOK 04/04 Q1003 R19/290050 NOSIG RMK QFE748
METAR:
2021-04-21 19:57:00
TAF ULOO 211957Z 2121/2206 20003MPS 6000 SCT016 TEMPO 2121/2204 3100 BR FEW004 TEMPO 2204/2206 23003G08MPS